sensor_id;sensor_type;location;lat;lon;timestamp;pressure;altitude;pressure_sealevel;temperature;humidity
8756;BME280;4414;42.670;23.228;2022-09-02T00:01:15;44942.75;;;-137.01;100.00
8756;BME280;4414;42.670;23.228;2022-09-02T00:03:43;44914.06;;;-137.01;100.00
8756;BME280;4414;42.670;23.228;2022-09-02T00:06:11;44925.53;;;-137.01;100.00
8756;BME280;4414;42.670;23.228;2022-09-02T00:08:39;44914.06;;;-137.01;100.00
8756;BME280;4414;42.670;23.228;2022-09-02T00:11:07;44933.19;;;-137.01;100.00
8756;BME280;4414;42.670;23.228;2022-09-02T00:13:38;44933.19;;;-137.01;100.00
8756;BME280;4414;42.670;23.228;2022-09-02T00:16:05;44940.84;;;-137.01;100.00
8756;BME280;4414;42.670;23.228;2022-09-02T00:18:32;44948.50;;;-137.01;100.00
8756;BME280;4414;42.670;23.228;2022-09-02T00:21:02;44933.19;;;-137.01;100.00
8756;BME280;4414;42.670;23.228;2022-09-02T00:23:29;44915.97;;;-137.01;100.00
8756;BME280;4414;42.670;23.228;2022-09-02T00:25:56;44921.72;;;-137.01;100.00
8756;BME280;4414;42.670;23.228;2022-09-02T00:28:23;44952.31;;;-137.01;100.00
8756;BME280;4414;42.670;23.228;2022-09-02T00:30:50;44956.16;;;-137.01;100.00
8756;BME280;4414;42.670;23.228;2022-09-02T00:33:17;44929.38;;;-137.01;100.00
8756;BME280;4414;42.670;23.228;2022-09-02T00:35:43;44935.09;;;-137.01;100.00
8756;BME280;4414;42.670;23.228;2022-09-02T00:38:12;44950.41;;;-137.01;100.00
8756;BME280;4414;42.670;23.228;2022-09-02T00:40:43;44940.84;;;-137.01;100.00
8756;BME280;4414;42.670;23.228;2022-09-02T00:43:10;44927.47;;;-137.01;100.00
8756;BME280;4414;42.670;23.228;2022-09-02T00:45:37;44965.72;;;-137.01;100.00
8756;BME280;4414;42.670;23.228;2022-09-02T00:48:03;44942.75;;;-137.01;100.00
8756;BME280;4414;42.670;23.228;2022-09-02T00:50:34;44942.75;;;-137.01;100.00
8756;BME280;4414;42.670;23.228;2022-09-02T00:53:04;44923.63;;;-137.01;100.00
8756;BME280;4414;42.670;23.228;2022-09-02T00:55:35;44914.06;;;-137.01;100.00
8756;BME280;4414;42.670;23.228;2022-09-02T00:58:06;44963.81;;;-137.01;100.00
8756;BME280;4414;42.670;23.228;2022-09-02T01:00:37;44948.50;;;-137.01;100.00
8756;BME280;4414;42.670;23.228;2022-09-02T01:03:10;44917.91;;;-137.01;100.00
8756;BME280;4414;42.670;23.228;2022-09-02T01:05:40;44940.84;;;-137.01;100.00
8756;BME280;4414;42.670;23.228;2022-09-02T01:08:09;44952.31;;;-137.01;100.00
8756;BME280;4414;42.670;23.228;2022-09-02T01:10:37;44935.09;;;-137.01;100.00
8756;BME280;4414;42.670;23.228;2022-09-02T01:13:10;44948.50;;;-137.01;100.00
8756;BME280;4414;42.670;23.228;2022-09-02T01:15:41;44935.09;;;-137.01;100.00
8756;BME280;4414;42.670;23.228;2022-09-02T01:18:13;44929.38;;;-137.01;100.00
8756;BME280;4414;42.670;23.228;2022-09-02T01:20:40;44942.75;;;-137.01;100.00
8756;BME280;4414;42.670;23.228;2022-09-02T01:23:09;44944.66;;;-137.01;100.00
8756;BME280;4414;42.670;23.228;2022-09-02T01:25:37;44969.53;;;-137.01;100.00
8756;BME280;4414;42.670;23.228;2022-09-02T01:28:06;44942.75;;;-137.01;100.00
8756;BME280;4414;42.670;23.228;2022-09-02T01:30:36;44929.38;;;-137.01;100.00
8756;BME280;4414;42.670;23.228;2022-09-02T01:33:05;44912.16;;;-137.01;100.00
8756;BME280;4414;42.670;23.228;2022-09-02T01:35:32;44923.63;;;-137.01;100.00
8756;BME280;4414;42.670;23.228;2022-09-02T01:37:59;44915.97;;;-137.01;100.00
8756;BME280;4414;42.670;23.228;2022-09-02T01:40:29;44919.81;;;-137.01;100.00
8756;BME280;4414;42.670;23.228;2022-09-02T01:42:59;44917.91;;;-137.01;100.00
8756;BME280;4414;42.670;23.228;2022-09-02T01:45:26;44940.84;;;-137.01;100.00
8756;BME280;4414;42.670;23.228;2022-09-02T01:47:54;44933.19;;;-137.01;100.00
8756;BME280;4414;42.670;23.228;2022-09-02T01:50:21;44921.72;;;-137.01;100.00
8756;BME280;4414;42.670;23.228;2022-09-02T01:52:48;44935.09;;;-137.01;100.00
8756;BME280;4414;42.670;23.228;2022-09-02T01:55:15;44942.75;;;-137.01;100.00
8756;BME280;4414;42.670;23.228;2022-09-02T01:57:43;44948.50;;;-137.01;100.00
8756;BME280;4414;42.670;23.228;2022-09-02T02:00:11;44940.84;;;-137.01;100.00
8756;BME280;4414;42.670;23.228;2022-09-02T02:02:39;44919.81;;;-137.01;100.00
8756;BME280;4414;42.670;23.228;2022-09-02T02:05:07;44946.59;;;-137.01;100.00
8756;BME280;4414;42.670;23.228;2022-09-02T02:07:34;44919.81;;;-137.01;100.00
8756;BME280;4414;42.670;23.228;2022-09-02T02:10:00;44946.59;;;-137.01;100.00
8756;BME280;4414;42.670;23.228;2022-09-02T02:12:27;44933.19;;;-137.01;100.00
8756;BME280;4414;42.670;23.228;2022-09-02T02:14:55;44915.97;;;-137.01;100.00
8756;BME280;4414;42.670;23.228;2022-09-02T02:17:22;44919.81;;;-137.01;100.00
8756;BME280;4414;42.670;23.228;2022-09-02T02:19:49;44937.03;;;-137.01;100.00
8756;BME280;4414;42.670;23.228;2022-09-02T02:22:16;44910.25;;;-137.01;100.00
8756;BME280;4414;42.670;23.228;2022-09-02T02:24:42;44919.81;;;-137.01;100.00
8756;BME280;4414;42.670;23.228;2022-09-02T02:27:09;44935.09;;;-137.01;100.00
8756;BME280;4414;42.670;23.228;2022-09-02T02:29:36;44923.63;;;-137.01;100.00
8756;BME280;4414;42.670;23.228;2022-09-02T02:32:04;44927.47;;;-137.01;100.00
8756;BME280;4414;42.670;23.228;2022-09-02T02:34:32;44944.66;;;-137.01;100.00
8756;BME280;4414;42.670;23.228;2022-09-02T02:36:59;44929.38;;;-137.01;100.00
8756;BME280;4414;42.670;23.228;2022-09-02T02:39:26;44914.06;;;-137.01;100.00
8756;BME280;4414;42.670;23.228;2022-09-02T02:41:52;44921.72;;;-137.01;100.00
8756;BME280;4414;42.670;23.228;2022-09-02T02:44:21;44942.75;;;-137.01;100.00
8756;BME280;4414;42.670;23.228;2022-09-02T02:46:48;44942.75;;;-137.01;100.00
8756;BME280;4414;42.670;23.228;2022-09-02T02:49:16;44956.16;;;-137.01;100.00
8756;BME280;4414;42.670;23.228;2022-09-02T02:51:43;44919.81;;;-137.01;100.00
8756;BME280;4414;42.670;23.228;2022-09-02T02:54:10;44938.94;;;-137.01;100.00
8756;BME280;4414;42.670;23.228;2022-09-02T02:56:39;44940.84;;;-137.01;100.00
8756;BME280;4414;42.670;23.228;2022-09-02T02:59:05;44933.19;;;-137.01;100.00
8756;BME280;4414;42.670;23.228;2022-09-02T03:01:33;44937.03;;;-137.01;100.00
8756;BME280;4414;42.670;23.228;2022-09-02T03:04:00;44938.94;;;-137.01;100.00
8756;BME280;4414;42.670;23.228;2022-09-02T03:06:28;44946.59;;;-137.01;100.00
8756;BME280;4414;42.670;23.228;2022-09-02T03:08:55;44919.81;;;-137.01;100.00
8756;BME280;4414;42.670;23.228;2022-09-02T03:11:22;44921.72;;;-137.01;100.00
8756;BME280;4414;42.670;23.228;2022-09-02T03:13:52;44956.16;;;-137.01;100.00
8756;BME280;4414;42.670;23.228;2022-09-02T03:16:19;44933.19;;;-137.01;100.00
8756;BME280;4414;42.670;23.228;2022-09-02T03:18:46;44933.19;;;-137.01;100.00
8756;BME280;4414;42.670;23.228;2022-09-02T03:21:12;44948.50;;;-137.01;100.00
8756;BME280;4414;42.670;23.228;2022-09-02T03:23:41;44931.28;;;-137.01;100.00
8756;BME280;4414;42.670;23.228;2022-09-02T03:26:09;44938.94;;;-137.01;100.00
8756;BME280;4414;42.670;23.228;2022-09-02T03:28:37;44942.75;;;-137.01;100.00
8756;BME280;4414;42.670;23.228;2022-09-02T03:31:04;44956.16;;;-137.01;100.00
8756;BME280;4414;42.670;23.228;2022-09-02T03:33:32;44938.94;;;-137.01;100.00
8756;BME280;4414;42.670;23.228;2022-09-02T03:35:59;44959.97;;;-137.01;100.00
8756;BME280;4414;42.670;23.228;2022-09-02T03:38:25;44929.38;;;-137.01;100.00
8756;BME280;4414;42.670;23.228;2022-09-02T03:40:53;44929.38;;;-137.01;100.00
8756;BME280;4414;42.670;23.228;2022-09-02T03:43:20;44923.63;;;-137.01;100.00
8756;BME280;4414;42.670;23.228;2022-09-02T03:45:47;44927.47;;;-137.01;100.00
8756;BME280;4414;42.670;23.228;2022-09-02T03:48:14;44942.75;;;-137.01;100.00
8756;BME280;4414;42.670;23.228;2022-09-02T03:50:43;44944.66;;;-137.01;100.00
8756;BME280;4414;42.670;23.228;2022-09-02T03:53:12;44933.19;;;-137.01;100.00
8756;BME280;4414;42.670;23.228;2022-09-02T03:55:39;44940.84;;;-137.01;100.00
8756;BME280;4414;42.670;23.228;2022-09-02T03:58:07;44933.19;;;-137.01;100.00
8756;BME280;4414;42.670;23.228;2022-09-02T04:00:35;44961.88;;;-137.01;100.00
8756;BME280;4414;42.670;23.228;2022-09-02T04:03:03;44931.28;;;-137.01;100.00
8756;BME280;4414;42.670;23.228;2022-09-02T04:05:30;44923.63;;;-137.01;100.00
8756;BME280;4414;42.670;23.228;2022-09-02T04:07:58;44944.66;;;-137.01;100.00
8756;BME280;4414;42.670;23.228;2022-09-02T04:10:25;44950.41;;;-137.01;100.00
8756;BME280;4414;42.670;23.228;2022-09-02T04:12:52;44944.66;;;-137.01;100.00
8756;BME280;4414;42.670;23.228;2022-09-02T04:15:20;44938.94;;;-137.01;100.00
8756;BME280;4414;42.670;23.228;2022-09-02T04:17:47;44952.31;;;-137.01;100.00
8756;BME280;4414;42.670;23.228;2022-09-02T04:20:14;44925.53;;;-137.01;100.00
8756;BME280;4414;42.670;23.228;2022-09-02T04:22:41;44950.41;;;-137.01;100.00
8756;BME280;4414;42.670;23.228;2022-09-02T04:25:08;44948.50;;;-137.01;100.00
8756;BME280;4414;42.670;23.228;2022-09-02T04:27:35;44944.66;;;-137.01;100.00
8756;BME280;4414;42.670;23.228;2022-09-02T04:30:03;44935.09;;;-137.01;100.00
8756;BME280;4414;42.670;23.228;2022-09-02T04:32:31;44952.31;;;-137.01;100.00
8756;BME280;4414;42.670;23.228;2022-09-02T04:34:58;44912.16;;;-137.01;100.00
8756;BME280;4414;42.670;23.228;2022-09-02T04:37:25;44944.66;;;-137.01;100.00
8756;BME280;4414;42.670;23.228;2022-09-02T04:39:52;44940.84;;;-137.01;100.00
8756;BME280;4414;42.670;23.228;2022-09-02T04:42:19;44940.84;;;-137.01;100.00
8756;BME280;4414;42.670;23.228;2022-09-02T04:44:46;44937.03;;;-137.01;100.00
8756;BME280;4414;42.670;23.228;2022-09-02T04:47:13;44923.63;;;-137.01;100.00
8756;BME280;4414;42.670;23.228;2022-09-02T04:49:41;44925.53;;;-137.01;100.00
8756;BME280;4414;42.670;23.228;2022-09-02T04:52:07;44948.50;;;-137.01;100.00
8756;BME280;4414;42.670;23.228;2022-09-02T04:54:35;44927.47;;;-137.01;100.00
8756;BME280;4414;42.670;23.228;2022-09-02T04:57:02;44942.75;;;-137.01;100.00
8756;BME280;4414;42.670;23.228;2022-09-02T04:59:28;44952.31;;;-137.01;100.00
8756;BME280;4414;42.670;23.228;2022-09-02T05:01:55;44956.16;;;-137.01;100.00
8756;BME280;4414;42.670;23.228;2022-09-02T05:04:22;44940.84;;;-137.01;100.00
8756;BME280;4414;42.670;23.228;2022-09-02T05:06:50;44944.66;;;-137.01;100.00
8756;BME280;4414;42.670;23.228;2022-09-02T05:09:17;44927.47;;;-137.01;100.00
8756;BME280;4414;42.670;23.228;2022-09-02T05:11:44;44931.28;;;-137.01;100.00
8756;BME280;4414;42.670;23.228;2022-09-02T05:14:13;44931.28;;;-137.01;100.00
8756;BME280;4414;42.670;23.228;2022-09-02T05:16:40;44950.41;;;-137.01;100.00
8756;BME280;4414;42.670;23.228;2022-09-02T05:19:08;44961.88;;;-137.01;100.00
8756;BME280;4414;42.670;23.228;2022-09-02T05:21:39;44942.75;;;-137.01;100.00
8756;BME280;4414;42.670;23.228;2022-09-02T05:24:07;44950.41;;;-137.01;100.00
8756;BME280;4414;42.670;23.228;2022-09-02T05:26:34;44919.81;;;-137.01;100.00
8756;BME280;4414;42.670;23.228;2022-09-02T05:29:02;44937.03;;;-137.01;100.00
8756;BME280;4414;42.670;23.228;2022-09-02T05:31:31;44956.16;;;-137.01;100.00
8756;BME280;4414;42.670;23.228;2022-09-02T05:33:58;44950.41;;;-137.01;100.00
8756;BME280;4414;42.670;23.228;2022-09-02T05:36:25;44954.25;;;-137.01;100.00
8756;BME280;4414;42.670;23.228;2022-09-02T05:38:51;44933.19;;;-137.01;100.00
8756;BME280;4414;42.670;23.228;2022-09-02T05:41:21;44935.09;;;-137.01;100.00
8756;BME280;4414;42.670;23.228;2022-09-02T05:43:48;44944.66;;;-137.01;100.00
8756;BME280;4414;42.670;23.228;2022-09-02T05:46:17;44906.41;;;-137.01;100.00
8756;BME280;4414;42.670;23.228;2022-09-02T05:48:46;44921.72;;;-137.01;100.00
8756;BME280;4414;42.670;23.228;2022-09-02T05:51:32;44935.09;;;-137.01;100.00
8756;BME280;4414;42.670;23.228;2022-09-02T05:54:00;44965.72;;;-137.01;100.00
8756;BME280;4414;42.670;23.228;2022-09-02T05:56:28;44935.09;;;-137.01;100.00
8756;BME280;4414;42.670;23.228;2022-09-02T05:58:55;44944.66;;;-137.01;100.00
8756;BME280;4414;42.670;23.228;2022-09-02T06:01:23;44948.50;;;-137.01;100.00
8756;BME280;4414;42.670;23.228;2022-09-02T06:03:50;44937.03;;;-137.01;100.00
8756;BME280;4414;42.670;23.228;2022-09-02T06:06:17;44942.75;;;-137.01;100.00
8756;BME280;4414;42.670;23.228;2022-09-02T06:08:44;44959.97;;;-137.01;100.00
8756;BME280;4414;42.670;23.228;2022-09-02T06:11:12;44938.94;;;-137.01;100.00
8756;BME280;4414;42.670;23.228;2022-09-02T06:13:41;44937.03;;;-137.01;100.00
8756;BME280;4414;42.670;23.228;2022-09-02T06:16:12;44961.88;;;-137.01;100.00
8756;BME280;4414;42.670;23.228;2022-09-02T06:18:39;44971.44;;;-137.01;100.00
8756;BME280;4414;42.670;23.228;2022-09-02T06:21:06;44958.06;;;-137.01;100.00
8756;BME280;4414;42.670;23.228;2022-09-02T06:23:34;44938.94;;;-137.01;100.00
8756;BME280;4414;42.670;23.228;2022-09-02T06:26:02;44958.06;;;-137.01;100.00
8756;BME280;4414;42.670;23.228;2022-09-02T06:28:29;44942.75;;;-137.01;100.00
8756;BME280;4414;42.670;23.228;2022-09-02T06:30:57;44965.72;;;-137.01;100.00
8756;BME280;4414;42.670;23.228;2022-09-02T06:33:24;44954.25;;;-137.01;100.00
8756;BME280;4414;42.670;23.228;2022-09-02T06:35:51;44971.44;;;-137.01;100.00
8756;BME280;4414;42.670;23.228;2022-09-02T06:38:18;44990.56;;;-137.01;100.00
8756;BME280;4414;42.670;23.228;2022-09-02T06:40:47;44975.28;;;-137.01;100.00
8756;BME280;4414;42.670;23.228;2022-09-02T06:43:14;44958.06;;;-137.01;100.00
8756;BME280;4414;42.670;23.228;2022-09-02T06:45:41;44944.66;;;-137.01;100.00
8756;BME280;4414;42.670;23.228;2022-09-02T06:48:10;44952.31;;;-137.01;100.00
8756;BME280;4414;42.670;23.228;2022-09-02T06:50:38;44952.31;;;-137.01;100.00
8756;BME280;4414;42.670;23.228;2022-09-02T06:53:05;44929.38;;;-137.01;100.00
8756;BME280;4414;42.670;23.228;2022-09-02T06:55:34;44944.66;;;-137.01;100.00
8756;BME280;4414;42.670;23.228;2022-09-02T06:58:01;44973.38;;;-137.01;100.00
8756;BME280;4414;42.670;23.228;2022-09-02T07:00:28;44952.31;;;-137.01;100.00
8756;BME280;4414;42.670;23.228;2022-09-02T07:02:56;44963.81;;;-137.01;100.00
8756;BME280;4414;42.670;23.228;2022-09-02T07:05:38;44956.16;;;-137.01;100.00
8756;BME280;4414;42.670;23.228;2022-09-02T07:08:05;44952.31;;;-137.01;100.00
8756;BME280;4414;42.670;23.228;2022-09-02T07:10:32;44952.31;;;-137.01;100.00
8756;BME280;4414;42.670;23.228;2022-09-02T07:12:58;44959.97;;;-137.01;100.00
8756;BME280;4414;42.670;23.228;2022-09-02T07:15:25;44969.53;;;-137.01;100.00
8756;BME280;4414;42.670;23.228;2022-09-02T07:17:52;44950.41;;;-137.01;100.00
8756;BME280;4414;42.670;23.228;2022-09-02T07:20:19;44954.25;;;-137.01;100.00
8756;BME280;4414;42.670;23.228;2022-09-02T07:22:47;44975.28;;;-137.01;100.00
8756;BME280;4414;42.670;23.228;2022-09-02T07:25:15;44952.31;;;-137.01;100.00
8756;BME280;4414;42.670;23.228;2022-09-02T07:27:42;44981.00;;;-137.01;100.00
8756;BME280;4414;42.670;23.228;2022-09-02T07:30:09;44971.44;;;-137.01;99.83
8756;BME280;4414;42.670;23.228;2022-09-02T07:32:36;44979.09;;;-137.01;100.00
8756;BME280;4414;42.670;23.228;2022-09-02T07:35:05;44971.44;;;-137.01;100.00
8756;BME280;4414;42.670;23.228;2022-09-02T07:37:32;44967.63;;;-137.01;100.00
8756;BME280;4414;42.670;23.228;2022-09-02T07:40:02;44952.31;;;-137.01;100.00
8756;BME280;4414;42.670;23.228;2022-09-02T07:42:29;44975.28;;;-137.01;100.00
8756;BME280;4414;42.670;23.228;2022-09-02T07:44:55;44967.63;;;-137.01;100.00
8756;BME280;4414;42.670;23.228;2022-09-02T07:47:22;44971.44;;;-137.01;97.64
8756;BME280;4414;42.670;23.228;2022-09-02T07:49:49;44952.31;;;-137.01;100.00
8756;BME280;4414;42.670;23.228;2022-09-02T07:52:16;44981.00;;;-137.01;97.83
8756;BME280;4414;42.670;23.228;2022-09-02T07:54:42;44969.53;;;-137.01;96.83
8756;BME280;4414;42.670;23.228;2022-09-02T07:57:11;44971.44;;;-137.01;97.00
8756;BME280;4414;42.670;23.228;2022-09-02T07:59:37;44986.75;;;-137.01;99.38
8756;BME280;4414;42.670;23.228;2022-09-02T08:02:04;44959.97;;;-137.01;99.61
8756;BME280;4414;42.670;23.228;2022-09-02T08:04:31;44959.97;;;-137.01;99.55
8756;BME280;4414;42.670;23.228;2022-09-02T08:06:58;44971.44;;;-137.01;97.38
8756;BME280;4414;42.670;23.228;2022-09-02T08:09:24;44982.94;;;-137.01;95.61
8756;BME280;4414;42.670;23.228;2022-09-02T08:11:51;44959.97;;;-137.01;96.45
8756;BME280;4414;42.670;23.228;2022-09-02T08:14:23;44971.44;;;-137.01;97.42
8756;BME280;4414;42.670;23.228;2022-09-02T08:16:51;44984.84;;;-137.01;97.89
8756;BME280;4414;42.670;23.228;2022-09-02T08:19:18;44969.53;;;-137.01;95.71
8756;BME280;4414;42.670;23.228;2022-09-02T08:21:45;44963.81;;;-137.01;97.16
8756;BME280;4414;42.670;23.228;2022-09-02T08:24:12;44977.19;;;-137.01;97.48
8756;BME280;4414;42.670;23.228;2022-09-02T08:26:39;44973.38;;;-137.01;97.03
8756;BME280;4414;42.670;23.228;2022-09-02T08:29:06;44963.81;;;-137.01;95.65
8756;BME280;4414;42.670;23.228;2022-09-02T08:31:35;44979.09;;;-137.01;95.42
8756;BME280;4414;42.670;23.228;2022-09-02T08:34:02;44982.94;;;-137.01;94.83
8756;BME280;4414;42.670;23.228;2022-09-02T08:36:29;44977.19;;;-137.01;95.11
8756;BME280;4414;42.670;23.228;2022-09-02T08:38:56;44971.44;;;-137.01;94.92
8756;BME280;4414;42.670;23.228;2022-09-02T08:41:24;44969.53;;;-137.01;95.40
8756;BME280;4414;42.670;23.228;2022-09-02T08:43:54;44981.00;;;-137.01;94.89
8756;BME280;4414;42.670;23.228;2022-09-02T08:46:23;44984.84;;;-137.01;97.22
8756;BME280;4414;42.670;23.228;2022-09-02T08:48:57;44967.63;;;-137.01;96.37
8756;BME280;4414;42.670;23.228;2022-09-02T08:51:28;44977.19;;;-137.01;95.98
8756;BME280;4414;42.670;23.228;2022-09-02T08:53:59;44969.53;;;-137.01;92.26
8756;BME280;4414;42.670;23.228;2022-09-02T08:56:30;44963.81;;;-137.01;94.30
8756;BME280;4414;42.670;23.228;2022-09-02T08:58:57;44979.09;;;-137.01;96.85
8756;BME280;4414;42.670;23.228;2022-09-02T09:01:34;44990.56;;;-137.01;95.79
8756;BME280;4414;42.670;23.228;2022-09-02T09:04:11;44975.28;;;-137.01;93.71
8756;BME280;4414;42.670;23.228;2022-09-02T09:06:54;44963.81;;;-137.01;96.19
8756;BME280;4414;42.670;23.228;2022-09-02T09:09:29;45015.44;;;-137.01;96.07
8756;BME280;4414;42.670;23.228;2022-09-02T09:12:08;44977.19;;;-137.01;95.62
8756;BME280;4414;42.670;23.228;2022-09-02T09:14:43;45003.97;;;-137.01;95.25
8756;BME280;4414;42.670;23.228;2022-09-02T09:17:19;45007.78;;;-137.01;95.28
8756;BME280;4414;42.670;23.228;2022-09-02T09:19:53;44979.09;;;-137.01;94.69
8756;BME280;4414;42.670;23.228;2022-09-02T09:22:23;44959.97;;;-137.01;94.56
8756;BME280;4414;42.670;23.228;2022-09-02T09:24:50;44971.44;;;-137.01;94.10
8756;BME280;4414;42.670;23.228;2022-09-02T09:27:18;44990.56;;;-137.01;93.67
8756;BME280;4414;42.670;23.228;2022-09-02T09:29:45;44996.31;;;-137.01;91.54
8756;BME280;4414;42.670;23.228;2022-09-02T09:32:20;44996.31;;;-137.01;89.97
8756;BME280;4414;42.670;23.228;2022-09-02T09:34:59;44967.63;;;-137.01;92.87
8756;BME280;4414;42.670;23.228;2022-09-02T09:37:29;44956.16;;;-137.01;89.91
8756;BME280;4414;42.670;23.228;2022-09-02T09:39:58;44971.44;;;-137.01;91.32
8756;BME280;4414;42.670;23.228;2022-09-02T09:42:33;44992.50;;;-137.01;90.79
8756;BME280;4414;42.670;23.228;2022-09-02T09:45:15;44961.88;;;-137.01;89.08
8756;BME280;4414;42.670;23.228;2022-09-02T09:47:42;44984.84;;;-137.01;89.37
8756;BME280;4414;42.670;23.228;2022-09-02T09:50:14;44971.44;;;-137.01;90.28
8756;BME280;4414;42.670;23.228;2022-09-02T09:52:41;44977.19;;;-137.01;89.14
8756;BME280;4414;42.670;23.228;2022-09-02T09:55:14;45003.97;;;-137.01;87.63
8756;BME280;4414;42.670;23.228;2022-09-02T09:57:43;44992.50;;;-137.01;87.22
8756;BME280;4414;42.670;23.228;2022-09-02T10:00:13;44994.41;;;-137.01;87.41
8756;BME280;4414;42.670;23.228;2022-09-02T10:02:49;44986.75;;;-137.01;87.69
8756;BME280;4414;42.670;23.228;2022-09-02T10:05:27;44986.75;;;-137.01;86.82
8756;BME280;4414;42.670;23.228;2022-09-02T10:07:56;45011.63;;;-137.01;89.39
8756;BME280;4414;42.670;23.228;2022-09-02T10:10:26;44975.28;;;-137.01;89.12
8756;BME280;4414;42.670;23.228;2022-09-02T10:12:55;44990.56;;;-137.01;88.85
8756;BME280;4414;42.670;23.228;2022-09-02T10:15:30;44998.22;;;-137.01;89.48
8756;BME280;4414;42.670;23.228;2022-09-02T10:18:10;44963.81;;;-137.01;86.07
8756;BME280;4414;42.670;23.228;2022-09-02T10:20:47;45007.78;;;-137.01;88.81
8756;BME280;4414;42.670;23.228;2022-09-02T10:23:23;44990.56;;;-137.01;88.62
8756;BME280;4414;42.670;23.228;2022-09-02T10:25:58;44988.66;;;-137.01;89.14
8756;BME280;4414;42.670;23.228;2022-09-02T10:28:40;44994.41;;;-137.01;87.56
8756;BME280;4414;42.670;23.228;2022-09-02T10:31:16;44994.41;;;-137.01;87.18
8756;BME280;4414;42.670;23.228;2022-09-02T10:33:53;45000.13;;;-137.01;88.36
8756;BME280;4414;42.670;23.228;2022-09-02T10:36:33;44986.75;;;-137.01;86.01
8756;BME280;4414;42.670;23.228;2022-09-02T10:39:13;44984.84;;;-137.01;86.91
8756;BME280;4414;42.670;23.228;2022-09-02T10:41:45;44992.50;;;-137.01;87.45
8756;BME280;4414;42.670;23.228;2022-09-02T10:44:26;44994.41;;;-137.01;88.27
8756;BME280;4414;42.670;23.228;2022-09-02T10:47:00;44992.50;;;-137.01;89.00
8756;BME280;4414;42.670;23.228;2022-09-02T10:49:39;44979.09;;;-137.01;91.88
8756;BME280;4414;42.670;23.228;2022-09-02T10:52:18;44992.50;;;-137.01;89.17
8756;BME280;4414;42.670;23.228;2022-09-02T10:54:52;44982.94;;;-137.01;87.11
8756;BME280;4414;42.670;23.228;2022-09-02T10:57:25;45002.06;;;-137.01;87.24
8756;BME280;4414;42.670;23.228;2022-09-02T11:00:00;44986.75;;;-137.01;86.05
8756;BME280;4414;42.670;23.228;2022-09-02T11:02:33;44967.63;;;-137.01;88.35
8756;BME280;4414;42.670;23.228;2022-09-02T11:05:06;44990.56;;;-137.01;85.65
8756;BME280;4414;42.670;23.228;2022-09-02T11:07:41;45000.13;;;-137.01;83.43
8756;BME280;4414;42.670;23.228;2022-09-02T11:10:14;45026.91;;;-137.01;84.15
8756;BME280;4414;42.670;23.228;2022-09-02T11:12:47;44977.19;;;-137.01;81.80
8756;BME280;4414;42.670;23.228;2022-09-02T11:15:18;45028.84;;;-137.01;80.88
8756;BME280;4414;42.670;23.228;2022-09-02T11:17:53;45000.13;;;-137.01;82.88
8756;BME280;4414;42.670;23.228;2022-09-02T11:20:29;45028.84;;;-137.01;83.70
8756;BME280;4414;42.670;23.228;2022-09-02T11:23:05;45003.97;;;-137.01;81.51
8756;BME280;4414;42.670;23.228;2022-09-02T11:25:38;45005.88;;;-137.01;82.36
8756;BME280;4414;42.670;23.228;2022-09-02T11:28:22;45028.84;;;-137.01;83.00
8756;BME280;4414;42.670;23.228;2022-09-02T11:30:55;45034.56;;;-137.01;79.77
8756;BME280;4414;42.670;23.228;2022-09-02T11:33:28;45036.47;;;-137.01;78.15
8756;BME280;4414;42.670;23.228;2022-09-02T11:35:57;45023.09;;;-137.01;75.79
8756;BME280;4414;42.670;23.228;2022-09-02T11:38:33;45036.47;;;-137.01;78.45
8756;BME280;4414;42.670;23.228;2022-09-02T11:41:24;45021.19;;;-137.01;77.09
8756;BME280;4414;42.670;23.228;2022-09-02T11:43:55;45032.66;;;-137.01;76.77
8756;BME280;4414;42.670;23.228;2022-09-02T11:46:37;45034.56;;;-137.01;76.50
8756;BME280;4414;42.670;23.228;2022-09-02T11:49:23;45025.00;;;-137.01;79.80
8756;BME280;4414;42.670;23.228;2022-09-02T11:52:22;45009.72;;;-137.01;80.53
8756;BME280;4414;42.670;23.228;2022-09-02T11:55:02;45034.56;;;-137.01;79.65
8756;BME280;4414;42.670;23.228;2022-09-02T11:57:32;45015.44;;;-137.01;78.73
8756;BME280;4414;42.670;23.228;2022-09-02T12:00:06;45015.44;;;-137.01;78.87
8756;BME280;4414;42.670;23.228;2022-09-02T12:02:36;45026.91;;;-137.01;77.78
8756;BME280;4414;42.670;23.228;2022-09-02T12:05:44;45013.53;;;-137.01;77.33
8756;BME280;4414;42.670;23.228;2022-09-02T12:08:38;45034.56;;;-137.01;78.47
8756;BME280;4414;42.670;23.228;2022-09-02T12:11:03;45021.19;;;-137.01;76.69
8756;BME280;4414;42.670;23.228;2022-09-02T12:13:34;45028.84;;;-137.01;79.07
8756;BME280;4414;42.670;23.228;2022-09-02T12:16:34;45025.00;;;-137.01;78.35
8756;BME280;4414;42.670;23.228;2022-09-02T12:19:24;45015.44;;;-137.01;77.60
8756;BME280;4414;42.670;23.228;2022-09-02T12:22:23;45000.13;;;-137.01;78.71
8756;BME280;4414;42.670;23.228;2022-09-02T12:24:52;44986.75;;;-137.01;77.47
8756;BME280;4414;42.670;23.228;2022-09-02T12:27:26;45025.00;;;-137.01;81.17
8756;BME280;4414;42.670;23.228;2022-09-02T12:29:55;45017.34;;;-137.01;77.02
8756;BME280;4414;42.670;23.228;2022-09-02T12:35:31;45036.47;;;-137.01;73.91
8756;BME280;4414;42.670;23.228;2022-09-02T12:41:22;45032.66;;;-137.01;79.01
8756;BME280;4414;42.670;23.228;2022-09-02T12:44:02;45032.66;;;-137.01;78.80
8756;BME280;4414;42.670;23.228;2022-09-02T12:46:43;45013.53;;;-137.01;79.70
8756;BME280;4414;42.670;23.228;2022-09-02T12:49:26;45044.13;;;-137.01;80.54
8756;BME280;4414;42.670;23.228;2022-09-02T12:51:55;45021.19;;;-137.01;80.70
8756;BME280;4414;42.670;23.228;2022-09-02T12:54:34;45017.34;;;-137.01;79.36
8756;BME280;4414;42.670;23.228;2022-09-02T12:57:02;45025.00;;;-137.01;78.91
8756;BME280;4414;42.670;23.228;2022-09-02T12:59:32;44975.28;;;-137.01;79.14
8756;BME280;4414;42.670;23.228;2022-09-02T13:02:23;44990.56;;;-137.01;83.37
8756;BME280;4414;42.670;23.228;2022-09-02T13:05:04;45002.06;;;-137.01;81.83